createdAt,value
2023-02-28T00:00:13.166Z,1012.81
2023-02-28T00:01:13.362Z,1012.83
2023-02-28T00:02:13.487Z,1012.85
2023-02-28T00:03:18.963Z,1012.86
2023-02-28T00:04:12.877Z,1012.87
2023-02-28T00:05:13.832Z,1012.90
2023-02-28T00:06:13.806Z,1012.90
2023-02-28T00:07:13.878Z,1012.88
2023-02-28T00:08:13.857Z,1012.89
2023-02-28T00:09:14.027Z,1012.86
2023-02-28T00:10:13.038Z,1012.87
2023-02-28T00:11:13.057Z,1012.89
2023-02-28T00:12:13.352Z,1012.88
2023-02-28T00:13:13.486Z,1012.91
2023-02-28T00:14:13.469Z,1012.85
2023-02-28T00:15:13.492Z,1012.86
2023-02-28T00:16:13.447Z,1012.89
2023-02-28T00:17:13.540Z,1012.90
2023-02-28T00:18:13.732Z,1012.92
2023-02-28T00:19:13.941Z,1012.91
2023-02-28T00:20:12.970Z,1012.88
2023-02-28T00:21:13.184Z,1012.87
2023-02-28T00:22:13.557Z,1012.87
2023-02-28T00:23:13.558Z,1012.87
2023-02-28T00:24:14.072Z,1012.89
2023-02-28T00:25:13.518Z,1012.88
2023-02-28T00:26:13.440Z,1012.89
2023-02-28T00:27:13.468Z,1012.87
2023-02-28T00:28:16.222Z,1012.88
2023-02-28T00:29:13.372Z,1012.89
2023-02-28T00:30:13.375Z,1012.88
2023-02-28T00:31:13.624Z,1012.90
2023-02-28T00:32:13.534Z,1012.88
2023-02-28T00:33:13.519Z,1012.89
2023-02-28T00:34:14.762Z,1012.88
2023-02-28T00:35:13.790Z,1012.89
2023-02-28T00:36:13.719Z,1012.87
2023-02-28T00:37:13.686Z,1012.87
2023-02-28T00:38:13.759Z,1012.92
2023-02-28T00:39:13.784Z,1012.89
2023-02-28T00:40:13.985Z,1012.89
2023-02-28T00:41:12.951Z,1012.85
2023-02-28T00:42:12.862Z,1012.84
2023-02-28T00:43:13.877Z,1012.85
2023-02-28T00:44:13.825Z,1012.86
2023-02-28T00:45:13.849Z,1012.86
2023-02-28T00:46:13.831Z,1012.86
2023-02-28T00:47:13.759Z,1012.86
2023-02-28T00:48:13.108Z,1012.84
2023-02-28T00:49:13.250Z,1012.84
2023-02-28T00:50:13.614Z,1012.86
2023-02-28T00:51:13.733Z,1012.88
2023-02-28T00:52:13.644Z,1012.86
2023-02-28T00:53:13.552Z,1012.90
2023-02-28T00:54:13.566Z,1012.90
2023-02-28T00:55:14.052Z,1012.91
2023-02-28T00:56:13.143Z,1012.94
2023-02-28T00:57:13.223Z,1012.90
2023-02-28T00:58:13.337Z,1012.94
2023-02-28T00:59:13.271Z,1012.95
2023-02-28T01:00:13.202Z,1012.96
2023-02-28T01:01:13.216Z,1012.95
2023-02-28T01:02:13.741Z,1012.94
2023-02-28T01:03:13.660Z,1012.97
2023-02-28T01:04:13.698Z,1012.99
2023-02-28T01:05:13.886Z,1013.00
2023-02-28T01:06:12.868Z,1012.97
2023-02-28T01:07:14.102Z,1012.96
2023-02-28T01:08:13.038Z,1012.96
2023-02-28T01:09:13.167Z,1012.97
2023-02-28T01:10:13.183Z,1012.95
2023-02-28T01:11:13.231Z,1012.94
2023-02-28T01:12:13.401Z,1012.95
2023-02-28T01:13:13.775Z,1012.94
2023-02-28T01:14:13.873Z,1012.92
2023-02-28T01:15:13.985Z,1012.91
2023-02-28T01:16:13.058Z,1012.95
2023-02-28T01:17:13.053Z,1012.90
2023-02-28T01:18:13.282Z,1012.93
2023-02-28T01:19:14.549Z,1012.95
2023-02-28T01:20:13.768Z,1012.90
2023-02-28T01:21:13.727Z,1012.90
2023-02-28T01:22:13.751Z,1012.90
2023-02-28T01:23:13.810Z,1012.91
2023-02-28T01:24:13.719Z,1012.92
2023-02-28T01:25:14.010Z,1012.91
2023-02-28T01:26:13.124Z,1012.87
2023-02-28T01:27:13.146Z,1012.87
2023-02-28T01:28:13.447Z,1012.87
2023-02-28T01:29:13.800Z,1012.85
2023-02-28T01:30:13.941Z,1012.84
2023-02-28T01:31:13.021Z,1012.85
2023-02-28T01:32:13.056Z,1012.81
2023-02-28T01:33:13.150Z,1012.80
2023-02-28T01:34:13.104Z,1012.82
2023-02-28T01:35:13.033Z,1012.79
2023-02-28T01:36:12.904Z,1012.80
2023-02-28T01:37:13.218Z,1012.76
2023-02-28T01:38:22.056Z,1012.80
2023-02-28T01:39:13.806Z,1012.79
2023-02-28T01:40:14.053Z,1012.77
2023-02-28T01:41:13.024Z,1012.73
2023-02-28T01:42:13.156Z,1012.79
2023-02-28T01:43:13.517Z,1012.75
2023-02-28T01:44:13.355Z,1012.77
2023-02-28T01:45:13.522Z,1012.75
2023-02-28T01:46:13.496Z,1012.72
2023-02-28T01:47:13.823Z,1012.72
2023-02-28T01:48:13.742Z,1012.69
2023-02-28T01:49:14.061Z,1012.70
2023-02-28T01:50:13.149Z,1012.72
2023-02-28T01:51:13.265Z,1012.75
2023-02-28T01:52:13.114Z,1012.74
2023-02-28T01:53:13.095Z,1012.67
2023-02-28T01:54:13.038Z,1012.71
2023-02-28T01:55:13.266Z,1012.69
2023-02-28T01:56:13.204Z,1012.70
2023-02-28T01:57:13.258Z,1012.70
2023-02-28T01:58:13.199Z,1012.70
2023-02-28T01:59:13.240Z,1012.71
2023-02-28T02:00:13.206Z,1012.73
2023-02-28T02:01:13.238Z,1012.72
2023-02-28T02:02:13.309Z,1012.71
2023-02-28T02:03:14.240Z,1012.67
2023-02-28T02:04:13.866Z,1012.67
2023-02-28T02:05:14.068Z,1012.71
2023-02-28T02:06:13.005Z,1012.70
2023-02-28T02:07:13.277Z,1012.68
2023-02-28T02:08:13.354Z,1012.70
2023-02-28T02:09:13.452Z,1012.68
2023-02-28T02:10:13.632Z,1012.68
2023-02-28T02:11:14.539Z,1012.68
2023-02-28T02:12:13.809Z,1012.68
2023-02-28T02:13:13.736Z,1012.64
2023-02-28T02:14:14.043Z,1012.68
2023-02-28T02:15:12.955Z,1012.62
2023-02-28T02:16:13.365Z,1012.67
2023-02-28T02:17:13.483Z,1012.64
2023-02-28T02:18:13.902Z,1012.68
2023-02-28T02:19:12.968Z,1012.65
2023-02-28T02:20:13.318Z,1012.61
2023-02-28T02:21:13.239Z,1012.56
2023-02-28T02:22:21.168Z,1012.57
2023-02-28T02:23:13.076Z,1012.52
2023-02-28T02:24:14.215Z,1012.56
2023-02-28T02:25:13.145Z,1012.56
2023-02-28T02:26:13.152Z,1012.55
2023-02-28T02:27:13.418Z,1012.50
2023-02-28T02:28:13.431Z,1012.50
2023-02-28T02:29:13.679Z,1012.50
2023-02-28T02:30:13.659Z,1012.54
2023-02-28T02:31:13.825Z,1012.54
2023-02-28T02:32:13.922Z,1012.51
2023-02-28T02:33:12.810Z,1012.51
2023-02-28T02:34:13.790Z,1012.52
2023-02-28T02:35:13.960Z,1012.50
2023-02-28T02:36:17.984Z,1012.51
2023-02-28T02:37:13.080Z,1012.48
2023-02-28T02:38:13.496Z,1012.51
2023-02-28T02:39:13.609Z,1012.53
2023-02-28T02:40:13.483Z,1012.48
2023-02-28T02:41:13.492Z,1012.48
2023-02-28T02:42:13.458Z,1012.53
2023-02-28T02:43:13.482Z,1012.50
2023-02-28T02:44:13.448Z,1012.52
2023-02-28T02:45:13.445Z,1012.53
2023-02-28T02:46:13.548Z,1012.51
2023-02-28T02:47:13.630Z,1012.50
2023-02-28T02:48:14.180Z,1012.51
2023-02-28T02:49:13.286Z,1012.54
2023-02-28T02:50:13.234Z,1012.55
2023-02-28T02:51:13.184Z,1012.60
2023-02-28T02:52:13.689Z,1012.60
2023-02-28T02:53:15.412Z,1012.57
2023-02-28T02:54:13.690Z,1012.57
2023-02-28T02:55:13.625Z,1012.57
2023-02-28T02:56:14.097Z,1012.55
2023-02-28T02:57:13.214Z,1012.60
2023-02-28T02:58:13.198Z,1012.60
2023-02-28T02:59:13.535Z,1012.58
2023-02-28T03:00:13.456Z,1012.59
2023-02-28T03:01:13.710Z,1012.58
2023-02-28T03:02:13.985Z,1012.60
2023-02-28T03:03:12.999Z,1012.60
2023-02-28T03:04:13.278Z,1012.58
2023-02-28T03:05:13.200Z,1012.60
2023-02-28T03:06:13.367Z,1012.60
2023-02-28T03:07:13.393Z,1012.58
2023-02-28T03:08:13.521Z,1012.58
2023-02-28T03:09:13.590Z,1012.56
2023-02-28T03:10:13.519Z,1012.58
2023-02-28T03:11:13.840Z,1012.56
2023-02-28T03:12:14.086Z,1012.57
2023-02-28T03:13:13.151Z,1012.59
2023-02-28T03:14:13.216Z,1012.53
2023-02-28T03:15:13.396Z,1012.56
2023-02-28T03:16:13.616Z,1012.58
2023-02-28T03:17:18.569Z,1012.58
2023-02-28T03:18:13.854Z,1012.59
2023-02-28T03:19:14.684Z,1012.58
2023-02-28T03:20:13.638Z,1012.56
2023-02-28T03:21:14.016Z,1012.54
2023-02-28T03:22:12.988Z,1012.55
2023-02-28T03:23:13.027Z,1012.50
2023-02-28T03:24:13.027Z,1012.51
2023-02-28T03:25:13.307Z,1012.46
2023-02-28T03:26:18.290Z,1012.49
2023-02-28T03:27:13.344Z,1012.47
2023-02-28T03:28:13.312Z,1012.46
2023-02-28T03:29:13.603Z,1012.48
2023-02-28T03:30:13.482Z,1012.44
2023-02-28T03:31:13.603Z,1012.44
2023-02-28T03:32:14.073Z,1012.45
2023-02-28T03:33:13.142Z,1012.42
2023-02-28T03:34:13.301Z,1012.46
2023-02-28T03:35:13.338Z,1012.44
2023-02-28T03:36:13.646Z,1012.45
2023-02-28T03:37:13.746Z,1012.45
2023-02-28T03:38:13.700Z,1012.49
2023-02-28T03:39:14.203Z,1012.47
2023-02-28T03:40:13.537Z,1012.49
2023-02-28T03:41:13.462Z,1012.48
2023-02-28T03:42:13.560Z,1012.52
2023-02-28T03:43:14.792Z,1012.50
2023-02-28T03:44:13.703Z,1012.55
2023-02-28T03:45:13.605Z,1012.56
2023-02-28T03:46:13.579Z,1012.56
2023-02-28T03:47:13.502Z,1012.55
2023-02-28T03:48:13.664Z,1012.59
2023-02-28T03:49:13.837Z,1012.58
2023-02-28T03:50:14.064Z,1012.55
2023-02-28T03:51:13.227Z,1012.64
2023-02-28T03:52:13.122Z,1012.60
2023-02-28T03:53:13.182Z,1012.61
2023-02-28T03:54:13.119Z,1012.58
2023-02-28T03:55:13.081Z,1012.57
2023-02-28T03:56:13.192Z,1012.57
2023-02-28T03:57:13.571Z,1012.55
2023-02-28T03:58:13.934Z,1012.58
2023-02-28T03:59:13.011Z,1012.62
2023-02-28T04:00:13.395Z,1012.62
2023-02-28T04:01:13.207Z,1012.57
2023-02-28T04:02:13.310Z,1012.58
2023-02-28T04:03:13.235Z,1012.60
2023-02-28T04:04:13.286Z,1012.59
2023-02-28T04:05:13.541Z,1012.61
2023-02-28T04:06:13.786Z,1012.58
2023-02-28T04:07:13.679Z,1012.62
2023-02-28T04:08:13.724Z,1012.60
2023-02-28T04:09:13.648Z,1012.61
2023-02-28T04:10:13.561Z,1012.60
2023-02-28T04:11:13.631Z,1012.58
2023-02-28T04:13:13.387Z,1012.57
2023-02-28T04:14:13.322Z,1012.59
2023-02-28T04:15:13.289Z,1012.61
2023-02-28T04:16:18.769Z,1012.58
2023-02-28T04:17:14.010Z,1012.58
2023-02-28T04:18:15.117Z,1012.57
2023-02-28T04:19:13.141Z,1012.58
2023-02-28T04:20:13.268Z,1012.58
2023-02-28T04:21:13.225Z,1012.57
2023-02-28T04:22:13.219Z,1012.58
2023-02-28T04:23:13.604Z,1012.55
2023-02-28T04:24:13.570Z,1012.56
2023-02-28T04:25:13.505Z,1012.55
2023-02-28T04:26:13.468Z,1012.57
2023-02-28T04:27:13.803Z,1012.61
2023-02-28T04:28:14.095Z,1012.61
2023-02-28T04:29:13.041Z,1012.60
2023-02-28T04:30:13.002Z,1012.63
2023-02-28T04:31:12.994Z,1012.60
2023-02-28T04:32:13.362Z,1012.59
2023-02-28T04:33:13.733Z,1012.62
2023-02-28T04:34:13.593Z,1012.66
2023-02-28T04:35:13.495Z,1012.65
2023-02-28T04:36:13.427Z,1012.63
2023-02-28T04:37:14.315Z,1012.69
2023-02-28T04:38:13.475Z,1012.64
2023-02-28T04:39:13.488Z,1012.64
2023-02-28T04:40:13.388Z,1012.69
2023-02-28T04:41:13.312Z,1012.68
2023-02-28T04:42:13.190Z,1012.71
2023-02-28T04:43:13.318Z,1012.72
2023-02-28T04:44:13.219Z,1012.71
2023-02-28T04:45:13.076Z,1012.69
2023-02-28T04:46:13.195Z,1012.71
2023-02-28T04:47:13.506Z,1012.73
2023-02-28T04:48:13.449Z,1012.73
2023-02-28T04:49:13.795Z,1012.71
2023-02-28T04:50:13.743Z,1012.75
2023-02-28T04:51:13.604Z,1012.72
2023-02-28T04:52:13.491Z,1012.75
2023-02-28T04:53:13.467Z,1012.76
2023-02-28T04:54:13.757Z,1012.78
2023-02-28T04:55:13.768Z,1012.76
2023-02-28T04:56:13.684Z,1012.72
2023-02-28T04:57:14.422Z,1012.69
2023-02-28T04:58:13.685Z,1012.69
2023-02-28T04:59:13.633Z,1012.71
2023-02-28T05:00:13.534Z,1012.73
2023-02-28T05:01:14.559Z,1012.72
2023-02-28T05:02:13.674Z,1012.72
2023-02-28T05:03:13.739Z,1012.71
2023-02-28T05:04:14.021Z,1012.68
2023-02-28T05:05:13.020Z,1012.70
2023-02-28T05:06:12.924Z,1012.70
2023-02-28T05:07:13.099Z,1012.70
2023-02-28T05:08:13.311Z,1012.72
2023-02-28T05:09:13.191Z,1012.76
2023-02-28T05:10:13.092Z,1012.78
2023-02-28T05:11:13.118Z,1012.75
2023-02-28T05:12:13.168Z,1012.80
2023-02-28T05:13:13.416Z,1012.77
2023-02-28T05:14:13.349Z,1012.81
2023-02-28T05:15:13.270Z,1012.81
2023-02-28T05:16:13.355Z,1012.79
2023-02-28T05:17:18.326Z,1012.80
2023-02-28T05:18:13.432Z,1012.81
2023-02-28T05:19:13.541Z,1012.82
2023-02-28T05:20:15.491Z,1012.81
2023-02-28T05:21:13.390Z,1012.83
2023-02-28T05:22:13.367Z,1012.80
2023-02-28T05:23:13.471Z,1012.82
2023-02-28T05:24:13.452Z,1012.83
2023-02-28T05:25:13.788Z,1012.79
2023-02-28T05:26:14.139Z,1012.82
2023-02-28T05:27:13.413Z,1012.86
2023-02-28T05:28:13.894Z,1012.84
2023-02-28T05:29:13.559Z,1012.86
2023-02-28T05:30:14.417Z,1012.88
2023-02-28T05:31:14.328Z,1012.88
2023-02-28T05:32:13.484Z,1012.90
2023-02-28T05:33:13.610Z,1012.92
2023-02-28T05:34:13.574Z,1012.89
2023-02-28T05:35:13.555Z,1012.92
2023-02-28T05:36:13.371Z,1012.95
2023-02-28T05:37:13.386Z,1012.90
2023-02-28T05:38:13.287Z,1012.90
2023-02-28T05:39:13.221Z,1012.92
2023-02-28T05:40:13.418Z,1012.91
2023-02-28T05:41:13.359Z,1012.89
2023-02-28T05:42:13.285Z,1012.93
2023-02-28T05:43:13.261Z,1012.99
2023-02-28T05:44:13.440Z,1013.03
2023-02-28T05:45:15.688Z,1013.01
2023-02-28T05:46:13.845Z,1013.03
2023-02-28T05:47:13.321Z,1013.02
2023-02-28T05:48:13.342Z,1013.02
2023-02-28T05:49:13.307Z,1013.01
2023-02-28T05:50:13.514Z,1013.02
2023-02-28T05:51:13.643Z,1012.98
2023-02-28T05:52:13.650Z,1012.96
2023-02-28T05:53:13.723Z,1012.99
2023-02-28T05:55:11.663Z,1013.01
2023-02-28T05:55:17.198Z,1013.02
2023-02-28T05:56:13.070Z,1013.02
2023-02-28T05:58:15.068Z,1013.06
2023-02-28T05:59:13.215Z,1013.05
2023-02-28T06:00:13.181Z,1013.06
2023-02-28T06:01:13.391Z,1013.09
2023-02-28T06:02:13.566Z,1013.05
2023-02-28T06:03:13.642Z,1013.07
2023-02-28T06:04:29.274Z,1013.09
2023-02-28T06:05:12.903Z,1013.08
2023-02-28T06:06:13.465Z,1013.10
2023-02-28T06:07:13.858Z,1013.06
2023-02-28T06:08:13.729Z,1013.03
2023-02-28T06:09:18.926Z,1013.06
2023-02-28T06:10:12.850Z,1013.07
2023-02-28T06:11:13.689Z,1013.08
2023-02-28T06:12:14.126Z,1013.09
2023-02-28T06:13:13.207Z,1013.12
2023-02-28T06:14:13.362Z,1013.09
2023-02-28T06:15:13.410Z,1013.12
2023-02-28T06:16:13.327Z,1013.14
2023-02-28T06:17:13.453Z,1013.15
2023-02-28T06:18:13.593Z,1013.16
2023-02-28T06:19:13.971Z,1013.17
2023-02-28T06:20:12.909Z,1013.20
2023-02-28T06:21:12.909Z,1013.20
2023-02-28T06:22:13.007Z,1013.20
2023-02-28T06:23:13.110Z,1013.22
2023-02-28T06:24:13.368Z,1013.26
2023-02-28T06:25:13.257Z,1013.22
2023-02-28T06:26:13.262Z,1013.23
2023-02-28T06:27:13.595Z,1013.26
2023-02-28T06:28:13.692Z,1013.24
2023-02-28T06:29:13.754Z,1013.22
2023-02-28T06:30:13.797Z,1013.20
2023-02-28T06:31:13.846Z,1013.21
2023-02-28T06:32:13.888Z,1013.29
2023-02-28T06:33:12.990Z,1013.28
2023-02-28T06:34:13.231Z,1013.28
2023-02-28T06:35:13.404Z,1013.28
2023-02-28T06:36:13.671Z,1013.29
2023-02-28T06:37:13.832Z,1013.33
2023-02-28T06:38:13.786Z,1013.32
2023-02-28T06:39:14.037Z,1013.28
2023-02-28T06:40:12.873Z,1013.27
2023-02-28T06:41:14.114Z,1013.27
2023-02-28T06:42:13.437Z,1013.30
2023-02-28T06:43:13.522Z,1013.32
2023-02-28T06:44:13.637Z,1013.31
2023-02-28T06:45:13.543Z,1013.32
2023-02-28T06:46:13.896Z,1013.29
2023-02-28T06:47:13.004Z,1013.34
2023-02-28T06:48:12.992Z,1013.31
2023-02-28T06:49:12.860Z,1013.37
2023-02-28T06:50:13.095Z,1013.35
2023-02-28T06:51:13.117Z,1013.35
2023-02-28T06:52:13.232Z,1013.35
2023-02-28T06:53:33.377Z,1013.34
2023-02-28T06:54:13.266Z,1013.37
2023-02-28T06:55:13.366Z,1013.41
2023-02-28T06:56:13.439Z,1013.38
2023-02-28T06:57:13.644Z,1013.39
2023-02-28T06:58:13.788Z,1013.41
2023-02-28T06:59:13.703Z,1013.38
2023-02-28T07:00:13.727Z,1013.40
2023-02-28T07:01:13.726Z,1013.44
2023-02-28T07:02:13.806Z,1013.43
2023-02-28T07:03:13.722Z,1013.43
2023-02-28T07:04:13.603Z,1013.41
2023-02-28T07:05:13.650Z,1013.43
2023-02-28T07:06:13.705Z,1013.41
2023-02-28T07:07:13.745Z,1013.44
2023-02-28T07:08:14.262Z,1013.41
2023-02-28T07:09:13.343Z,1013.41
2023-02-28T07:10:13.257Z,1013.40
2023-02-28T07:11:13.437Z,1013.43
2023-02-28T07:12:13.493Z,1013.44
2023-02-28T07:13:13.325Z,1013.46
2023-02-28T07:14:13.719Z,1013.42
2023-02-28T07:15:14.057Z,1013.47
2023-02-28T07:16:13.542Z,1013.44
2023-02-28T07:17:13.514Z,1013.42
2023-02-28T07:18:13.520Z,1013.44
2023-02-28T07:19:13.436Z,1013.44
2023-02-28T07:20:13.431Z,1013.44
2023-02-28T07:21:13.331Z,1013.46
2023-02-28T07:22:15.555Z,1013.48
2023-02-28T07:23:12.897Z,1013.52
2023-02-28T07:24:12.834Z,1013.53
2023-02-28T07:25:13.816Z,1013.50
2023-02-28T07:26:13.734Z,1013.50
2023-02-28T07:27:13.926Z,1013.50
2023-02-28T07:28:12.918Z,1013.52
2023-02-28T07:29:12.996Z,1013.52
2023-02-28T07:30:13.284Z,1013.55
2023-02-28T07:31:13.322Z,1013.57
2023-02-28T07:32:13.439Z,1013.54
2023-02-28T07:33:13.502Z,1013.59
2023-02-28T07:34:13.483Z,1013.57
2023-02-28T07:35:13.516Z,1013.62
2023-02-28T07:36:13.417Z,1013.58
2023-02-28T07:37:13.456Z,1013.61
2023-02-28T07:38:13.540Z,1013.62
2023-02-28T07:39:13.536Z,1013.60
2023-02-28T07:40:13.583Z,1013.62
2023-02-28T07:41:13.470Z,1013.60
2023-02-28T07:42:13.432Z,1013.61
2023-02-28T07:43:13.498Z,1013.59
2023-02-28T07:44:13.655Z,1013.60
2023-02-28T07:45:13.632Z,1013.61
2023-02-28T07:46:13.745Z,1013.60
2023-02-28T07:47:13.692Z,1013.60
2023-02-28T07:48:13.622Z,1013.61
2023-02-28T07:49:13.476Z,1013.55
2023-02-28T07:50:13.403Z,1013.59
2023-02-28T07:51:13.720Z,1013.63
2023-02-28T07:52:13.757Z,1013.64
2023-02-28T07:53:13.774Z,1013.62
2023-02-28T07:54:14.069Z,1013.64
2023-02-28T07:55:13.168Z,1013.61
2023-02-28T07:56:13.101Z,1013.65
2023-02-28T07:57:13.014Z,1013.64
2023-02-28T07:58:12.957Z,1013.66
2023-02-28T07:59:13.055Z,1013.68
2023-02-28T08:00:13.679Z,1013.67
2023-02-28T08:01:13.735Z,1013.66
2023-02-28T08:02:13.736Z,1013.67
2023-02-28T08:03:13.781Z,1013.66
2023-02-28T08:04:14.023Z,1013.70
2023-02-28T08:05:13.316Z,1013.69
2023-02-28T08:06:13.269Z,1013.67
2023-02-28T08:07:13.474Z,1013.67
2023-02-28T08:08:13.676Z,1013.63
2023-02-28T08:09:13.591Z,1013.62
2023-02-28T08:10:13.683Z,1013.60
2023-02-28T08:11:13.852Z,1013.62
2023-02-28T08:12:13.859Z,1013.66
2023-02-28T08:13:14.258Z,1013.60
2023-02-28T08:14:13.653Z,1013.61
2023-02-28T08:15:13.528Z,1013.67
2023-02-28T08:16:13.447Z,1013.67
2023-02-28T08:17:13.400Z,1013.67
2023-02-28T08:18:13.362Z,1013.69
2023-02-28T08:19:13.350Z,1013.64
2023-02-28T08:20:13.233Z,1013.66
2023-02-28T08:21:13.377Z,1013.63
2023-02-28T08:22:13.710Z,1013.68
2023-02-28T08:23:13.971Z,1013.69
2023-02-28T08:24:12.940Z,1013.70
2023-02-28T08:25:12.921Z,1013.68
2023-02-28T08:26:13.003Z,1013.70
2023-02-28T08:27:12.922Z,1013.68
2023-02-28T08:28:13.060Z,1013.70
2023-02-28T08:29:12.998Z,1013.66
2023-02-28T08:30:38.069Z,1013.68
2023-02-28T08:31:13.202Z,1013.66
2023-02-28T08:33:01.600Z,1013.65
2023-02-28T08:33:17.268Z,1013.66
2023-02-28T08:34:13.727Z,1013.67
2023-02-28T08:35:13.754Z,1013.73
2023-02-28T08:36:36.589Z,1013.71
2023-02-28T08:37:13.735Z,1013.75
2023-02-28T08:38:13.849Z,1013.75
2023-02-28T08:39:42.910Z,1013.75
2023-02-28T08:40:12.833Z,1013.74
2023-02-28T08:41:13.655Z,1013.74
2023-02-28T08:42:56.616Z,1013.77
2023-02-28T08:43:13.675Z,1013.77
2023-02-28T08:44:18.938Z,1013.74
2023-02-28T08:45:13.024Z,1013.73
2023-02-28T08:46:13.110Z,1013.71
2023-02-28T08:47:18.309Z,1013.77
2023-02-28T08:48:13.248Z,1013.79
2023-02-28T08:49:13.172Z,1013.78
2023-02-28T08:50:13.184Z,1013.76
2023-02-28T08:51:13.317Z,1013.75
2023-02-28T08:52:13.287Z,1013.75
2023-02-28T08:53:13.462Z,1013.76
2023-02-28T08:54:13.633Z,1013.76
2023-02-28T08:55:13.555Z,1013.76
2023-02-28T08:56:13.615Z,1013.79
2023-02-28T08:57:13.766Z,1013.78
2023-02-28T08:58:13.860Z,1013.80
2023-02-28T08:59:13.743Z,1013.80
2023-02-28T09:00:13.613Z,1013.79
2023-02-28T09:01:13.898Z,1013.79
2023-02-28T09:02:13.180Z,1013.80
2023-02-28T09:03:13.397Z,1013.79
2023-02-28T09:04:14.598Z,1013.76
2023-02-28T09:05:13.687Z,1013.74
2023-02-28T09:06:13.699Z,1013.74
2023-02-28T09:07:13.951Z,1013.78
2023-02-28T09:08:13.228Z,1013.74
2023-02-28T09:09:13.252Z,1013.73
2023-02-28T09:10:13.369Z,1013.73
2023-02-28T09:11:13.356Z,1013.73
2023-02-28T09:12:13.283Z,1013.69
2023-02-28T09:13:13.196Z,1013.69
2023-02-28T09:14:13.126Z,1013.68
2023-02-28T09:15:13.138Z,1013.67
2023-02-28T09:16:13.114Z,1013.63
2023-02-28T09:17:13.667Z,1013.67
2023-02-28T09:18:13.674Z,1013.62
2023-02-28T09:19:13.730Z,1013.63
2023-02-28T09:20:14.107Z,1013.64
2023-02-28T09:21:13.646Z,1013.64
2023-02-28T09:22:13.666Z,1013.69
2023-02-28T09:23:13.721Z,1013.66
2023-02-28T09:24:14.076Z,1013.67
2023-02-28T09:25:13.695Z,1013.71
2023-02-28T09:26:13.698Z,1013.69
2023-02-28T09:27:13.652Z,1013.67
2023-02-28T09:28:13.730Z,1013.67
2023-02-28T09:29:14.069Z,1013.66
2023-02-28T09:30:13.167Z,1013.65
2023-02-28T09:31:13.549Z,1013.66
2023-02-28T09:32:13.643Z,1013.68
2023-02-28T09:33:13.635Z,1013.62
2023-02-28T09:34:13.777Z,1013.64
2023-02-28T09:35:13.722Z,1013.63
2023-02-28T09:36:14.154Z,1013.67
2023-02-28T09:37:13.038Z,1013.66
2023-02-28T09:38:13.099Z,1013.62
2023-02-28T09:39:13.381Z,1013.67
2023-02-28T09:40:13.665Z,1013.64
2023-02-28T09:41:13.604Z,1013.62
2023-02-28T09:42:13.691Z,1013.59
2023-02-28T09:43:14.169Z,1013.60
2023-02-28T09:44:13.171Z,1013.63
2023-02-28T09:45:13.209Z,1013.66
2023-02-28T09:46:13.211Z,1013.66
2023-02-28T09:47:13.283Z,1013.65
2023-02-28T09:48:26.980Z,1013.65
2023-02-28T09:49:13.159Z,1013.61
2023-02-28T09:50:13.109Z,1013.66
2023-02-28T09:51:13.053Z,1013.63
2023-02-28T09:52:13.017Z,1013.62
2023-02-28T09:53:12.951Z,1013.59
2023-02-28T09:54:12.907Z,1013.60
2023-02-28T09:55:12.891Z,1013.64
2023-02-28T09:56:12.966Z,1013.65
2023-02-28T09:57:13.053Z,1013.66
2023-02-28T09:58:12.972Z,1013.68
2023-02-28T09:59:13.076Z,1013.72
2023-02-28T10:00:13.121Z,1013.70
2023-02-28T10:01:13.087Z,1013.71
2023-02-28T10:02:13.124Z,1013.74
2023-02-28T10:03:13.018Z,1013.73
2023-02-28T10:04:13.581Z,1013.76
2023-02-28T10:05:13.550Z,1013.73
2023-02-28T10:06:13.444Z,1013.71
2023-02-28T10:07:13.400Z,1013.69
2023-02-28T10:08:13.321Z,1013.72
2023-02-28T10:09:18.571Z,1013.72
2023-02-28T10:10:13.584Z,1013.75
2023-02-28T10:11:14.064Z,1013.74
2023-02-28T10:12:13.119Z,1013.76
2023-02-28T10:13:13.167Z,1013.74
2023-02-28T10:14:13.505Z,1013.71
2023-02-28T10:15:13.765Z,1013.71
2023-02-28T10:16:13.939Z,1013.61
2023-02-28T10:17:18.293Z,1013.70
2023-02-28T10:18:13.874Z,1013.71
2023-02-28T10:19:12.940Z,1013.71
2023-02-28T10:20:12.912Z,1013.67
2023-02-28T10:21:12.805Z,1013.66
2023-02-28T10:22:13.708Z,1013.64
2023-02-28T10:23:13.624Z,1013.61
2023-02-28T10:24:13.785Z,1013.62
2023-02-28T10:25:13.819Z,1013.62
2023-02-28T10:26:13.808Z,1013.59
2023-02-28T10:27:14.125Z,1013.62
2023-02-28T10:28:12.982Z,1013.66
2023-02-28T10:29:12.970Z,1013.56
2023-02-28T10:30:12.868Z,1013.56
2023-02-28T10:31:13.909Z,1013.56
2023-02-28T10:32:13.027Z,1013.53
2023-02-28T10:33:13.154Z,1013.56
2023-02-28T10:34:13.104Z,1013.55
2023-02-28T10:35:13.214Z,1013.57
2023-02-28T10:36:13.463Z,1013.53
2023-02-28T10:37:13.453Z,1013.53
2023-02-28T10:38:13.569Z,1013.53
2023-02-28T10:39:13.497Z,1013.59
2023-02-28T10:40:13.344Z,1013.57
2023-02-28T10:41:13.412Z,1013.58
2023-02-28T10:42:13.432Z,1013.48
2023-02-28T10:43:13.710Z,1013.55
2023-02-28T10:44:13.782Z,1013.52
2023-02-28T10:45:13.923Z,1013.46
2023-02-28T10:46:13.235Z,1013.44
2023-02-28T10:47:48.577Z,1013.44
2023-02-28T10:48:13.671Z,1013.48
2023-02-28T10:49:18.873Z,1013.51
2023-02-28T10:50:13.001Z,1013.49
2023-02-28T10:51:13.237Z,1013.44
2023-02-28T10:52:13.513Z,1013.45
2023-02-28T10:53:13.616Z,1013.46
2023-02-28T10:54:13.933Z,1013.43
2023-02-28T10:55:13.180Z,1013.42
2023-02-28T10:56:13.504Z,1013.47
2023-02-28T10:57:13.415Z,1013.29
2023-02-28T10:58:13.629Z,1013.40
2023-02-28T10:59:13.564Z,1013.43
2023-02-28T11:00:13.748Z,1013.43
2023-02-28T11:01:13.629Z,1013.36
2023-02-28T11:02:13.546Z,1013.42
2023-02-28T11:03:13.924Z,1013.43
2023-02-28T11:04:13.187Z,1013.45
2023-02-28T11:05:13.375Z,1013.34
2023-02-28T11:06:13.578Z,1013.39
2023-02-28T11:07:13.453Z,1013.43
2023-02-28T11:08:13.520Z,1013.43
2023-02-28T11:09:13.865Z,1013.43
2023-02-28T11:10:13.862Z,1013.43
2023-02-28T11:11:12.834Z,1013.42
2023-02-28T11:12:13.909Z,1013.37
2023-02-28T11:14:20.646Z,1013.45
2023-02-28T11:15:40.723Z,1013.38
2023-02-28T11:16:14.200Z,1013.39
2023-02-28T11:17:13.273Z,1013.32
2023-02-28T11:18:13.220Z,1013.41
2023-02-28T11:19:13.633Z,1013.38
2023-02-28T11:20:13.880Z,1013.38
2023-02-28T11:21:13.306Z,1013.40
2023-02-28T11:22:13.821Z,1013.31
2023-02-28T11:23:14.116Z,1013.36
2023-02-28T11:24:13.353Z,1013.25
2023-02-28T11:25:13.483Z,1013.42
2023-02-28T11:26:13.746Z,1013.27
2023-02-28T11:27:13.986Z,1013.34
2023-02-28T11:28:13.327Z,1013.34
2023-02-28T11:29:13.391Z,1013.28
2023-02-28T11:30:13.643Z,1013.37
2023-02-28T11:31:14.121Z,1013.34
2023-02-28T11:32:13.643Z,1013.40
2023-02-28T11:33:14.097Z,1013.32
2023-02-28T11:34:13.115Z,1013.21
2023-02-28T11:35:13.475Z,1013.34
2023-02-28T11:36:13.468Z,1013.29
2023-02-28T11:37:13.461Z,1013.26
2023-02-28T11:38:13.387Z,1013.31
2023-02-28T11:39:13.439Z,1013.25
2023-02-28T11:40:13.587Z,1013.19
2023-02-28T11:41:13.877Z,1013.24
2023-02-28T11:42:13.818Z,1013.18
2023-02-28T11:43:13.992Z,1013.17
2023-02-28T11:44:13.057Z,1013.26
2023-02-28T11:45:13.016Z,1013.24
2023-02-28T11:46:18.387Z,1013.21
2023-02-28T11:47:13.574Z,1013.18
2023-02-28T11:48:13.705Z,1013.21
2023-02-28T11:49:13.735Z,1013.24
2023-02-28T11:50:13.785Z,1013.22
2023-02-28T11:51:13.993Z,1013.16
2023-02-28T11:52:13.146Z,1013.20
2023-02-28T11:53:13.001Z,1013.16
2023-02-28T11:54:13.191Z,1013.11
2023-02-28T11:55:13.215Z,1013.16
2023-02-28T11:56:13.197Z,1013.19
2023-02-28T11:57:13.380Z,1013.18
2023-02-28T11:58:13.668Z,1013.16
2023-02-28T11:59:13.901Z,1013.25
2023-02-28T12:00:12.877Z,1013.18
2023-02-28T12:01:14.007Z,1013.20
2023-02-28T12:02:13.229Z,1013.12
2023-02-28T12:03:13.234Z,1013.16
2023-02-28T12:04:13.222Z,1013.07
2023-02-28T12:05:13.339Z,1013.11
2023-02-28T12:06:13.460Z,1013.08
2023-02-28T12:07:13.559Z,1013.13
2023-02-28T12:08:13.787Z,1013.04